EPWA/WAW METAR and TAF weather

Enter ICAO airport designator
Station Type Date Time Source
EPWA METAR 2021/03/04 21:30 UTC NOAA

EPWA 042130Z 32007KT 4700 -DZ BR OVC005 01/01 Q1013 NOSIG


Station Type Date Time Source
EPWA Decoded METAR 2021/03/04 21:30 UTC NOAA

Warszawa-Okecie, Poland (EPWA) 52-10N 020-58E 107M
Mar 04, 2021 - 04:30 PM EST / 2021.03.04 2130 UTC
Wind: from the NW (320 degrees) at 8 MPH (7 KT):0
Visibility: 2 mile(s):0
Sky conditions: overcast
Weather: light drizzle; mist
Temperature: 33 F (1 C)
Windchill: 26 F (-3 C):1
Dew Point: 33 F (1 C)
Relative Humidity: 100%
Pressure (altimeter): 29.91 in. Hg (1013 hPa)
ob: EPWA 042130Z 32007KT 4700 -DZ BR OVC005 01/01 Q1013 NOSIG
cycle: 21

Station Type Date Time Source
EPWA TAF 2021/03/04 21:36 UTC NOAA

TAF EPWA 042030Z 0421/0521 29010KT 8000 BKN012
BECMG 0421/0423 36010KT
TEMPO 0421/0501 3000 SNRA BR BKN005
BECMG 0501/0504 SCT015 PROB40
TEMPO 0501/0505 BKN007 PROB40
TEMPO 0513/0519 2000 SHSN SCT012 BKN025CB

Example: see airport list